Empalme Querandies, Argentina
Current Conditions -  °F | °C
As of 4:00 AM on Monday 24 Nov 2014 (Local Time) from SAZM Reporting Station
Thunderstorm Thunderstorm  
Wind Chill: 63°   Ceiling: 3500
Heat Index: 63°   Visibility: 2.5mi
Dew Point: 59°   Wind: 12mph
Humidity: 88%   Direction: 230°SW
Pressure: 29.71"   Gusts: NA
Location:  36.93°S, 60.31°W
Report Text: SAZM 240700Z 23010KT 4000 TSRA OVC035FEW040CB 17/15 Q1006
Loading
Personal Weather Stations






























Interactive Weather Map New forecast layout! Learn more

10-Day Weather Forecast

Advertisements
Track Severe Weather on mobile